Time;durP1;ratioP1;P1;durP2;ratioP2;P2;SDS_P1;SDS_P2;PMS_P1;PMS_P2;Temp;Humidity;BMP_temperature;BMP_pressure;BME280_temperature;BME280_humidity;BME280_pressure;Samples;Min_cycle;Max_cycle;Signal;HPM_P1;HPM_P2
2021/06/23 00:00:42;;;;;;;4.38;3.13;;;;;;;16.24;76.18;100576.38;5026430;28;20032;-73
2021/06/23 00:03:07;;;;;;;5.50;3.75;;;;;;;16.21;76.32;100572.06;5025036;28;20485;-73
2021/06/23 00:05:32;;;;;;;3.55;3.25;;;;;;;16.20;76.29;100575.59;5026524;28;20100;-73
2021/06/23 00:07:58;;;;;;;5.07;3.10;;;;;;;16.18;76.32;100579.19;5024869;28;20080;-73
2021/06/23 00:10:23;;;;;;;4.97;3.83;;;;;;;16.12;76.21;100564.50;5026317;28;20060;-73
2021/06/23 00:12:53;;;;;;;14.05;3.63;;;;;;;16.09;76.80;100569.81;5026122;28;20022;-73
2021/06/23 00:15:20;;;;;;;5.82;3.30;;;;;;;16.10;76.58;100577.63;5024985;28;20030;-73
2021/06/23 00:17:45;;;;;;;4.55;3.45;;;;;;;15.94;76.81;100553.63;5026206;28;20026;-73
2021/06/23 00:20:12;;;;;;;6.43;3.65;;;;;;;16.03;76.37;100570.88;5026349;28;20021;-73
2021/06/23 00:22:37;;;;;;;9.10;3.70;;;;;;;15.98;76.81;100568.38;5026122;28;20049;-73
2021/06/23 00:25:03;;;;;;;5.35;4.00;;;;;;;16.01;76.89;100575.28;5026267;28;20030;-73
2021/06/23 00:27:29;;;;;;;5.63;3.47;;;;;;;15.93;77.05;100574.59;5025834;28;20386;-72
2021/06/23 00:29:54;;;;;;;4.07;3.67;;;;;;;16.01;76.94;100580.53;5026036;28;20106;-73
2021/06/23 00:32:20;;;;;;;5.30;3.30;;;;;;;16.06;76.73;100589.13;5008003;28;20026;-72
2021/06/23 00:34:46;;;;;;;5.60;3.97;;;;;;;16.07;76.77;100595.22;5026094;28;20022;-73
2021/06/23 00:37:12;;;;;;;4.30;3.90;;;;;;;16.08;76.61;100594.31;5025793;28;20030;-73
2021/06/23 00:39:38;;;;;;;6.78;4.63;;;;;;;16.06;76.74;100585.63;5025999;28;20065;-73
2021/06/23 00:42:07;;;;;;;5.40;3.60;;;;;;;16.05;76.81;100595.25;5008112;28;20076;-73
2021/06/23 00:44:32;;;;;;;4.70;3.53;;;;;;;16.09;76.79;100601.25;5008007;28;20022;-73
2021/06/23 00:46:58;;;;;;;7.43;4.05;;;;;;;16.08;76.66;100599.53;5025601;28;20037;-73
2021/06/23 00:49:30;;;;;;;5.68;3.80;;;;;;;16.08;76.65;100603.03;5007728;28;20085;-73
2021/06/23 00:51:56;;;;;;;7.32;4.10;;;;;;;16.03;76.61;100596.19;5008037;28;20029;-74
2021/06/23 00:54:22;;;;;;;5.15;4.22;;;;;;;15.98;76.74;100606.78;5024022;28;20021;-73
2021/06/23 00:56:47;;;;;;;6.18;3.92;;;;;;;15.99;76.74;100603.25;5007182;28;20033;-74
2021/06/23 00:59:13;;;;;;;7.35;3.67;;;;;;;15.98;76.70;100614.66;5025066;28;20525;-73
2021/06/23 01:01:41;;;;;;;4.90;4.40;;;;;;;15.97;76.72;100618.16;5007705;28;20029;-73
2021/06/23 01:04:07;;;;;;;6.75;4.38;;;;;;;15.93;76.83;100603.41;5025378;28;20048;-73
2021/06/23 01:06:34;;;;;;;6.55;4.55;;;;;;;15.88;76.81;100607.94;5007628;28;20474;-73
2021/06/23 01:09:00;;;;;;;6.95;4.20;;;;;;;15.86;76.84;100614.03;5025019;28;20026;-73
2021/06/23 01:11:27;;;;;;;5.40;3.60;;;;;;;15.80;77.20;100608.97;5025256;28;20029;-73
2021/06/23 01:14:01;;;;;;;6.43;4.20;;;;;;;15.71;77.04;100611.84;5023872;28;20484;-74
2021/06/23 01:16:28;;;;;;;5.53;3.92;;;;;;;15.68;77.31;100606.69;5025426;28;20101;-74
2021/06/23 01:18:55;;;;;;;9.48;5.22;;;;;;;15.74;77.19;100606.53;5025050;28;20014;-73
2021/06/23 01:21:21;;;;;;;5.15;4.60;;;;;;;15.73;77.46;100610.91;5025056;28;20044;-73
2021/06/23 01:23:46;;;;;;;6.60;4.53;;;;;;;15.69;77.34;100606.66;5007267;28;20479;-73
2021/06/23 01:26:11;;;;;;;11.32;4.70;;;;;;;15.65;77.45;100604.16;5024986;28;20037;-72
2021/06/23 01:28:37;;;;;;;7.32;5.00;;;;;;;15.67;77.50;100610.22;5007070;28;20240;-74
2021/06/23 01:31:03;;;;;;;6.15;4.88;;;;;;;15.59;77.71;100606.03;5007306;28;20021;-73
2021/06/23 01:33:29;;;;;;;10.05;5.28;;;;;;;15.63;77.79;100619.91;5024749;28;20084;-74
2021/06/23 01:35:55;;;;;;;6.85;5.22;;;;;;;15.63;77.71;100619.03;5023834;28;20029;-74
2021/06/23 01:38:21;;;;;;;6.80;4.60;;;;;;;15.53;77.75;100590.50;5024731;28;20105;-74
2021/06/23 01:40:47;;;;;;;7.03;5.05;;;;;;;15.62;77.79;100610.34;5007004;28;20022;-73
2021/06/23 01:43:13;;;;;;;7.35;5.50;;;;;;;15.56;77.68;100616.59;5023171;28;20083;-73
2021/06/23 01:45:39;;;;;;;6.88;4.93;;;;;;;15.54;78.00;100617.53;5024377;28;20084;-72
2021/06/23 01:48:06;;;;;;;8.23;5.22;;;;;;;15.50;78.09;100611.50;5024493;28;20045;-73
2021/06/23 01:50:31;;;;;;;7.45;5.50;;;;;;;15.47;78.07;100608.97;5024343;28;20033;-74
2021/06/23 01:52:57;;;;;;;7.88;4.80;;;;;;;15.43;78.17;100612.59;5023303;28;20051;-73
2021/06/23 01:55:28;;;;;;;5.70;4.55;;;;;;;15.43;78.33;100604.72;5006901;28;20030;-73
2021/06/23 01:58:06;;;;;;;6.93;5.22;;;;;;;15.40;78.42;100608.28;5022979;28;20057;-73
2021/06/23 02:00:41;;;;;;;6.93;4.97;;;;;;;15.39;78.27;100603.06;5024225;28;20339;-73
2021/06/23 02:03:15;;;;;;;7.05;4.35;;;;;;;15.38;78.39;100604.84;5024013;28;20033;-73
2021/06/23 02:06:08;;;;;;;6.43;4.47;;;;;;;15.38;78.46;100609.22;5024093;28;20038;-72
2021/06/23 02:08:37;;;;;;;8.23;4.65;;;;;;;15.35;78.57;100607.56;5022220;28;20113;-73
2021/06/23 02:11:12;;;;;;;6.88;4.55;;;;;;;15.35;78.68;100611.00;5023684;28;20038;-74
2021/06/23 02:13:50;;;;;;;7.25;5.18;;;;;;;15.32;78.40;100612.84;5022527;28;20022;-73
2021/06/23 02:16:17;;;;;;;10.90;5.32;;;;;;;15.26;78.67;100613.84;5022793;28;20033;-74
2021/06/23 02:18:43;;;;;;;9.27;5.75;;;;;;;15.23;78.63;100608.69;5023873;28;20026;-74
2021/06/23 02:21:09;;;;;;;9.50;6.20;;;;;;;15.20;78.64;100612.25;5006034;28;20453;-73
2021/06/23 02:23:39;;;;;;;10.98;5.72;;;;;;;15.20;78.84;100621.84;5024041;28;20045;-73
2021/06/23 02:26:05;;;;;;;8.77;6.25;;;;;;;15.11;78.89;100617.72;5023924;28;20022;-73
2021/06/23 02:28:30;;;;;;;9.70;7.10;;;;;;;15.10;78.99;100615.97;5023614;28;20017;-72
2021/06/23 02:30:57;;;;;;;9.82;6.78;;;;;;;14.92;79.28;100593.75;5023886;28;20026;-73
2021/06/23 02:33:22;;;;;;;9.50;6.72;;;;;;;14.99;79.33;100603.16;5023848;28;20028;-73
2021/06/23 02:35:49;;;;;;;10.93;4.80;;;;;;;15.00;79.60;100597.03;5023845;28;20085;-73
2021/06/23 02:38:15;;;;;;;13.60;6.28;;;;;;;14.97;79.39;100600.59;5023623;28;20024;-73
2021/06/23 02:40:41;;;;;;;12.25;6.28;;;;;;;14.97;79.68;100597.09;5022147;28;20018;-72
2021/06/23 02:43:07;;;;;;;11.10;6.55;;;;;;;14.97;79.70;100599.72;5005748;28;20085;-72
2021/06/23 02:45:32;;;;;;;11.38;7.22;;;;;;;14.96;79.64;100595.41;5023568;28;20033;-73
2021/06/23 02:47:58;;;;;;;15.05;8.73;;;;;;;14.94;79.85;100600.66;5023267;28;20331;-73
2021/06/23 02:50:24;;;;;;;10.85;7.57;;;;;;;14.95;80.00;100593.69;5023412;28;20026;-73
2021/06/23 02:52:50;;;;;;;9.98;7.50;;;;;;;14.95;79.90;100591.06;5023321;28;20018;-73
2021/06/23 02:55:22;;;;;;;11.52;6.15;;;;;;;15.06;79.99;100596.91;5023443;28;20026;-73
2021/06/23 02:57:48;;;;;;;9.77;5.88;;;;;;;15.13;79.88;100596.75;5021943;28;20085;-72
2021/06/23 03:00:14;;;;;;;8.93;6.00;;;;;;;15.18;79.82;100597.47;5022127;28;20026;-73
2021/06/23 03:02:40;;;;;;;9.07;5.10;;;;;;;15.24;79.59;100599.94;5023417;28;20025;-73
2021/06/23 03:05:06;;;;;;;9.38;4.65;;;;;;;15.26;79.56;100595.53;5021990;28;20079;-73
2021/06/23 03:07:32;;;;;;;6.95;4.93;;;;;;;15.29;79.49;100603.31;5023014;28;20068;-73
2021/06/23 03:10:05;;;;;;;6.00;4.75;;;;;;;15.35;79.15;100607.56;5021912;28;20072;-72
2021/06/23 03:12:31;;;;;;;6.53;3.90;;;;;;;15.33;79.11;100606.72;5021800;28;20037;-74
2021/06/23 03:14:56;;;;;;;7.05;4.10;;;;;;;15.35;79.02;100618.00;5022181;28;20017;-73
2021/06/23 03:17:22;;;;;;;5.55;3.53;;;;;;;15.34;78.92;100611.91;5005592;28;20325;-74
2021/06/23 03:19:47;;;;;;;6.97;3.38;;;;;;;15.36;78.90;100623.19;5026249;28;20348;-74
2021/06/23 03:22:12;;;;;;;5.60;3.33;;;;;;;15.28;78.65;100614.69;5027154;28;20088;-74
2021/06/23 03:24:39;;;;;;;4.82;3.25;;;;;;;15.26;78.80;100626.94;5009602;28;20097;-73
2021/06/23 03:27:05;;;;;;;7.78;3.90;;;;;;;15.23;78.84;100622.66;5009364;28;20033;-73
2021/06/23 03:29:33;;;;;;;4.38;3.03;;;;;;;15.27;78.86;100620.78;5027030;28;20086;-73
2021/06/23 03:32:00;;;;;;;6.32;4.30;;;;;;;15.31;78.82;100618.97;5027026;28;20030;-72
2021/06/23 03:34:26;;;;;;;8.38;3.97;;;;;;;15.28;78.77;100625.16;5025383;28;20152;-72
2021/06/23 03:36:52;;;;;;;5.95;3.90;;;;;;;15.33;78.87;100628.50;5027038;28;20022;-74
2021/06/23 03:39:18;;;;;;;5.15;3.40;;;;;;;15.41;78.81;100628.31;5026890;28;20126;-74
2021/06/23 03:41:44;;;;;;;6.50;3.45;;;;;;;15.48;78.58;100626.38;5027264;28;20033;-73
2021/06/23 03:44:09;;;;;;;6.55;3.80;;;;;;;15.54;78.11;100626.25;5026674;28;20030;-72
2021/06/23 03:46:34;;;;;;;4.47;3.20;;;;;;;15.54;78.20;100613.16;5025406;28;20026;-73
2021/06/23 03:49:00;;;;;;;6.25;3.85;;;;;;;15.64;77.79;100626.00;5026564;28;20036;-73
2021/06/23 03:51:26;;;;;;;4.90;3.33;;;;;;;15.71;77.87;100627.56;5025271;28;20584;-73
2021/06/23 03:53:52;;;;;;;5.68;3.30;;;;;;;15.81;77.48;100631.66;5026543;28;20033;-72
2021/06/23 03:56:17;;;;;;;6.47;3.30;;;;;;;15.86;77.43;100629.75;5026537;28;20046;-72
2021/06/23 03:58:43;;;;;;;7.72;3.92;;;;;;;16.03;77.51;100633.72;5024808;28;20088;-73
2021/06/23 04:01:09;;;;;;;6.35;3.50;;;;;;;16.15;76.92;100634.28;5025259;28;20428;-72
2021/06/23 04:03:34;;;;;;;4.13;3.10;;;;;;;16.18;76.38;100626.34;5008667;28;20076;-72
2021/06/23 04:06:00;;;;;;;5.30;3.00;;;;;;;16.17;76.30;100630.72;5008787;28;20030;-72
2021/06/23 04:08:25;;;;;;;4.43;2.95;;;;;;;16.25;76.20;100632.22;5024860;28;20029;-73
2021/06/23 04:10:51;;;;;;;4.97;2.58;;;;;;;16.34;76.20;100639.84;5024706;28;20056;-73
2021/06/23 04:13:16;;;;;;;5.03;2.30;;;;;;;16.40;75.72;100650.16;5008350;28;20025;-74
2021/06/23 04:15:42;;;;;;;6.97;2.90;;;;;;;16.41;75.43;100645.75;5024601;28;20153;-72
2021/06/23 04:18:07;;;;;;;3.53;2.17;;;;;;;16.40;75.43;100651.91;5008376;28;20022;-72
2021/06/23 04:20:33;;;;;;;3.53;2.13;;;;;;;16.45;75.18;100652.63;5026092;28;20029;-72
2021/06/23 04:22:58;;;;;;;4.47;2.58;;;;;;;16.49;74.90;100649.00;5024803;28;20056;-72
2021/06/23 04:25:24;;;;;;;4.65;2.85;;;;;;;16.55;74.57;100656.69;5026058;28;20048;-72
2021/06/23 04:27:49;;;;;;;4.45;2.88;;;;;;;16.56;74.44;100650.56;5025883;28;20053;-74
2021/06/23 04:30:15;;;;;;;6.80;3.05;;;;;;;16.60;74.32;100653.94;5024076;28;20077;-71
2021/06/23 04:32:41;;;;;;;3.25;2.13;;;;;;;16.60;74.24;100649.56;5025810;28;20026;-73
2021/06/23 04:35:08;;;;;;;7.35;2.40;;;;;;;16.63;73.88;100658.25;5025718;28;20096;-73
2021/06/23 04:37:35;;;;;;;2.75;2.05;;;;;;;16.51;73.51;100643.72;5025434;28;20029;-73
2021/06/23 04:40:01;;;;;;;5.20;2.65;;;;;;;16.52;73.60;100645.47;5025851;28;20048;-73
2021/06/23 04:42:27;;;;;;;2.67;2.03;;;;;;;16.47;73.56;100651.69;5025626;28;20032;-73
2021/06/23 04:44:52;;;;;;;3.40;1.95;;;;;;;16.48;73.66;100660.41;5007929;28;20018;-73
2021/06/23 04:47:19;;;;;;;3.67;2.45;;;;;;;16.48;73.24;100668.28;5025567;28;20033;-73
2021/06/23 04:49:44;;;;;;;4.18;2.50;;;;;;;16.41;73.39;100670.19;5025666;28;20040;-73
2021/06/23 04:52:09;;;;;;;3.55;2.50;;;;;;;16.43;74.07;100668.41;5025708;28;20026;-74
2021/06/23 04:54:35;;;;;;;3.42;2.50;;;;;;;16.54;73.83;100656.75;5007956;28;20051;-73
2021/06/23 04:57:00;;;;;;;6.97;2.97;;;;;;;16.66;73.83;100664.22;5007946;28;20026;-72
2021/06/23 04:59:26;;;;;;;3.92;2.70;;;;;;;16.77;73.48;100670.94;5024451;28;20101;-70
2021/06/23 05:01:51;;;;;;;5.53;3.10;;;;;;;16.82;72.80;100672.50;5025107;28;20085;-69
2021/06/23 05:04:16;;;;;;;7.38;4.03;;;;;;;16.81;72.68;100672.53;5007655;28;20014;-69
2021/06/23 05:06:42;;;;;;;6.47;3.20;;;;;;;16.71;72.60;100678.06;5023637;28;20355;-69
2021/06/23 05:09:07;;;;;;;4.72;2.70;;;;;;;16.64;72.96;100675.69;5025250;28;20259;-70
2021/06/23 05:11:36;;;;;;;2.72;2.22;;;;;;;16.63;73.01;100673.97;5025197;28;20049;-69
2021/06/23 05:14:01;;;;;;;4.75;2.67;;;;;;;16.59;72.81;100689.78;5025075;28;20454;-67
2021/06/23 05:16:29;;;;;;;4.20;2.70;;;;;;;16.51;72.74;100686.53;5025152;28;20055;-76
2021/06/23 05:18:55;;;;;;;5.75;2.60;;;;;;;16.51;72.96;100691.78;5024974;28;20033;-76
2021/06/23 05:21:21;;;;;;;7.25;2.88;;;;;;;16.54;72.96;100696.06;5007350;28;20041;-76
2021/06/23 05:23:46;;;;;;;3.65;2.75;;;;;;;16.59;72.66;100695.03;5025004;28;20017;-76
2021/06/23 05:26:12;;;;;;;2.95;2.00;;;;;;;16.54;72.73;100699.53;5024929;28;20025;-76
2021/06/23 05:28:37;;;;;;;4.78;2.20;;;;;;;16.58;73.06;100695.91;5024856;28;20048;-73
2021/06/23 05:31:02;;;;;;;5.75;2.40;;;;;;;16.73;73.03;100694.63;5024616;28;20474;-73
2021/06/23 05:33:28;;;;;;;3.60;1.92;;;;;;;16.82;72.66;100696.09;5024592;28;20026;-73
2021/06/23 05:35:53;;;;;;;6.75;2.38;;;;;;;16.88;71.94;100699.44;5024421;28;20257;-73
2021/06/23 05:38:18;;;;;;;2.65;2.05;;;;;;;16.82;71.90;100700.50;5024541;28;20033;-73
2021/06/23 05:40:44;;;;;;;4.63;1.92;;;;;;;16.84;71.88;100699.53;5024510;28;20034;-73
2021/06/23 05:43:09;;;;;;;4.30;2.08;;;;;;;16.83;71.55;100707.44;5024363;28;20029;-73
2021/06/23 05:45:34;;;;;;;2.60;1.55;;;;;;;16.78;71.97;100704.09;5024757;28;20514;-73
2021/06/23 05:48:00;;;;;;;2.53;1.55;;;;;;;16.85;72.14;100706.50;5024352;28;20060;-73
2021/06/23 05:50:25;;;;;;;3.50;1.85;;;;;;;16.94;71.68;100708.00;5024763;28;20029;-75
2021/06/23 05:52:50;;;;;;;4.75;1.80;;;;;;;17.05;71.44;100707.66;5024326;28;20088;-74
2021/06/23 05:55:21;;;;;;;2.67;1.80;;;;;;;17.21;71.17;100715.94;5024396;28;20025;-73
2021/06/23 05:57:52;;;;;;;3.63;1.80;;;;;;;17.29;70.34;100709.59;5024267;28;20036;-73
2021/06/23 06:00:19;;;;;;;2.55;1.73;;;;;;;17.24;69.87;100714.97;5024281;28;20032;-73
2021/06/23 06:02:45;;;;;;;2.40;1.73;;;;;;;17.19;70.24;100725.63;5024474;28;20053;-73
2021/06/23 06:05:11;;;;;;;3.75;1.58;;;;;;;17.29;69.99;100726.19;5024371;28;20029;-74
2021/06/23 06:07:37;;;;;;;2.95;1.42;;;;;;;17.26;69.55;100736.78;5022993;28;20068;-73
2021/06/23 06:10:02;;;;;;;2.45;1.55;;;;;;;17.24;70.09;100735.97;5024193;28;20036;-75
2021/06/23 06:12:28;;;;;;;3.92;1.50;;;;;;;17.30;69.73;100730.53;5024355;28;20018;-74
2021/06/23 06:14:56;;;;;;;2.17;1.67;;;;;;;17.40;69.21;100738.09;5023997;28;20030;-73
2021/06/23 06:17:21;;;;;;;2.75;1.60;;;;;;;17.51;69.63;100743.03;5024219;28;20026;-74
2021/06/23 06:19:46;;;;;;;4.45;1.50;;;;;;;17.66;69.24;100746.91;5024174;28;20026;-74
2021/06/23 06:22:12;;;;;;;3.25;1.50;;;;;;;17.88;69.06;100749.69;5024069;28;20037;-75
2021/06/23 06:24:38;;;;;;;2.28;1.30;;;;;;;18.07;67.97;100752.53;5024160;28;20014;-75
2021/06/23 06:27:04;;;;;;;4.15;1.77;;;;;;;18.00;66.40;100753.69;5023817;28;20057;-75
2021/06/23 06:29:29;;;;;;;3.88;1.52;;;;;;;17.83;66.23;100751.59;5023820;28;20037;-72
2021/06/23 06:31:54;;;;;;;2.25;1.60;;;;;;;17.68;66.83;100752.97;5023826;28;20071;-74
2021/06/23 06:34:20;;;;;;;3.30;1.60;;;;;;;17.64;67.42;100753.97;5023869;28;20024;-73
2021/06/23 06:36:45;;;;;;;2.78;1.45;;;;;;;17.66;67.52;100750.41;5023985;28;20026;-74
2021/06/23 06:39:10;;;;;;;2.88;1.40;;;;;;;17.83;66.88;100757.72;5023833;28;20022;-74
2021/06/23 06:41:36;;;;;;;2.45;1.40;;;;;;;17.80;66.66;100757.81;5024089;28;20029;-74
2021/06/23 06:44:01;;;;;;;3.42;1.50;;;;;;;17.94;67.18;100767.84;5005870;28;20445;-74
2021/06/23 06:46:27;;;;;;;2.40;1.42;;;;;;;17.95;66.16;100760.84;5024041;28;20314;-74
2021/06/23 06:48:52;;;;;;;3.03;1.80;;;;;;;17.90;65.97;100755.75;5023769;28;20045;-75
2021/06/23 06:51:24;;;;;;;3.92;1.70;;;;;;;17.79;66.13;100756.09;5023980;28;20021;-74
2021/06/23 06:53:49;;;;;;;2.80;1.70;;;;;;;17.68;66.21;100760.84;5005363;28;20030;-75
2021/06/23 06:56:16;;;;;;;2.72;1.73;;;;;;;17.59;66.71;100748.88;5023837;28;20026;-76
2021/06/23 06:58:41;;;;;;;3.03;1.80;;;;;;;17.73;66.93;100763.31;5021791;28;20077;-72
2021/06/23 07:01:06;;;;;;;3.38;1.83;;;;;;;17.82;66.84;100773.53;5023695;28;20022;-75
2021/06/23 07:03:32;;;;;;;2.70;1.75;;;;;;;17.84;66.29;100783.06;5006019;28;20022;-73
2021/06/23 07:05:57;;;;;;;3.67;1.70;;;;;;;17.81;66.54;100777.91;5023751;28;20637;-76
2021/06/23 07:08:23;;;;;;;2.53;1.80;;;;;;;17.88;66.64;100775.06;5005711;28;20709;-74
2021/06/23 07:10:48;;;;;;;3.00;1.83;;;;;;;17.88;66.60;100786.44;5023429;28;20030;-73
2021/06/23 07:13:13;;;;;;;5.13;1.90;;;;;;;17.83;66.45;100783.97;5023458;28;20045;-74
2021/06/23 07:15:39;;;;;;;4.75;1.90;;;;;;;17.81;66.43;100784.94;5005858;28;20021;-74
2021/06/23 07:18:04;;;;;;;4.00;1.73;;;;;;;17.84;66.53;100783.06;5023300;28;20102;-75
2021/06/23 07:20:30;;;;;;;2.67;1.80;;;;;;;17.83;66.57;100772.59;5023383;28;20051;-74
2021/06/23 07:22:55;;;;;;;4.38;2.30;;;;;;;17.79;66.39;100777.13;5023299;28;20018;-74
2021/06/23 07:25:23;;;;;;;2.53;1.90;;;;;;;17.80;66.46;100794.59;5023581;28;20084;-75
2021/06/23 07:27:49;;;;;;;3.28;1.92;;;;;;;17.80;66.26;100791.97;5023362;28;20043;-74
2021/06/23 07:30:14;;;;;;;2.67;1.75;;;;;;;17.75;66.16;100786.00;5023156;28;20514;-74
2021/06/23 07:33:02;;;;;;;4.60;1.70;;;;;;;17.68;65.71;100794.97;5005661;28;20025;-74
2021/06/23 07:38:15;;;;;;;2.13;1.60;;;;;;;17.56;65.78;100797.09;5023550;28;20056;-74
2021/06/23 07:43:10;;;;;;;3.88;1.92;;;;;;;17.28;66.22;100792.72;5023417;28;20026;-74
2021/06/23 07:45:37;;;;;;;2.50;1.75;;;;;;;17.32;66.76;100791.69;5021994;28;20036;-74
2021/06/23 07:48:03;;;;;;;3.72;1.70;;;;;;;17.55;66.87;100795.38;5023097;28;20028;-74
2021/06/23 07:50:36;;;;;;;5.05;1.80;;;;;;;17.86;66.39;100792.66;5023087;28;20094;-74
2021/06/23 07:53:11;;;;;;;3.35;1.98;;;;;;;18.14;65.70;100797.03;5023003;28;20018;-74
2021/06/23 07:55:51;;;;;;;2.67;1.98;;;;;;;18.49;65.53;100797.56;5023043;28;20366;-74
2021/06/23 08:01:43;;;;;;;4.07;1.80;;;;;;;19.15;64.09;100784.69;5023160;28;20028;-75
2021/06/23 08:09:39;;;;;;;2.65;1.50;;;;;;;19.96;61.43;100788.50;5026647;28;20099;-74
2021/06/23 08:14:36;;;;;;;;;;;;;;;20.72;61.42;100795.81;5026908;28;20026;-75
2021/06/23 08:17:02;;;;;;;1.80;1.23;;;;;;;20.99;59.17;100792.88;5026376;28;19915;-75
2021/06/23 08:19:27;;;;;;;2.97;1.50;;;;;;;21.21;57.92;100788.38;5026223;28;20028;-74
2021/06/23 08:21:52;;;;;;;2.83;1.58;;;;;;;21.38;56.54;100787.56;5024702;28;20030;-74
2021/06/23 08:24:18;;;;;;;3.25;1.55;;;;;;;21.16;56.11;100778.91;5026307;28;20081;-75
2021/06/23 08:26:43;;;;;;;2.28;1.52;;;;;;;20.84;55.60;100785.63;5026149;28;20358;-73
2021/06/23 08:29:08;;;;;;;3.60;1.80;;;;;;;20.47;56.00;100794.28;5025678;28;20444;-74
2021/06/23 08:31:34;;;;;;;3.85;2.03;;;;;;;20.21;56.39;100793.63;5024888;28;20030;-74
2021/06/23 08:33:59;;;;;;;2.30;1.65;;;;;;;20.26;57.38;100794.31;5026063;28;20026;-74
2021/06/23 08:36:24;;;;;;;2.08;1.40;;;;;;;20.43;57.35;100796.19;5024830;28;20117;-73
2021/06/23 08:38:51;;;;;;;2.88;1.50;;;;;;;20.61;56.73;100790.16;5025952;28;20026;-75
2021/06/23 08:41:16;;;;;;;2.20;1.40;;;;;;;20.83;56.47;100797.97;5008311;28;20052;-75
2021/06/23 08:43:42;;;;;;;2.45;1.42;;;;;;;21.12;55.89;100805.53;5025920;28;20017;-73
2021/06/23 08:46:07;;;;;;;2.58;1.70;;;;;;;21.41;55.18;100804.13;5025893;28;20493;-74
2021/06/23 08:48:32;;;;;;;4.45;1.42;;;;;;;21.83;54.52;100801.28;5025697;28;20026;-74
2021/06/23 08:51:16;;;;;;;4.63;1.63;;;;;;;22.04;53.61;100803.78;5025520;28;20052;-75
2021/06/23 08:53:42;;;;;;;2.53;1.38;;;;;;;21.95;52.36;100798.97;5025524;28;20025;-75
2021/06/23 08:56:07;;;;;;;2.97;1.70;;;;;;;21.88;52.80;100796.63;5025508;28;20037;-75
2021/06/23 08:58:34;;;;;;;2.22;1.70;;;;;;;21.83;52.71;100806.56;5025086;28;20079;-74
2021/06/23 09:01:00;;;;;;;2.58;1.67;;;;;;;21.79;52.89;100807.63;5025486;28;20037;-75
2021/06/23 09:03:25;;;;;;;3.47;2.30;;;;;;;21.81;53.05;100810.22;5025360;28;20091;-74
2021/06/23 09:05:57;;;;;;;2.58;1.90;;;;;;;21.77;52.75;100805.06;5025632;28;20037;-74
2021/06/23 09:08:36;;;;;;;3.42;2.13;;;;;;;21.52;51.66;100800.09;5025406;28;20022;-74
2021/06/23 09:11:22;;;;;;;3.90;1.55;;;;;;;21.09;52.10;100800.34;5025731;28;20022;-75
2021/06/23 09:13:47;;;;;;;3.42;1.80;;;;;;;20.80;53.40;100798.97;5024813;28;20044;-75
2021/06/23 09:16:13;;;;;;;4.65;1.50;;;;;;;20.78;53.89;100800.81;5024586;28;20030;-76
2021/06/23 09:18:40;;;;;;;1.90;1.60;;;;;;;20.96;54.26;100790.38;5025061;28;20619;-75
2021/06/23 09:21:06;;;;;;;2.70;1.30;;;;;;;21.17;53.30;100795.59;5025006;28;20081;-76
2021/06/23 09:23:51;;;;;;;2.95;1.92;;;;;;;21.29;53.67;100797.63;5025146;28;20029;-76
2021/06/23 09:26:22;;;;;;;2.10;1.45;;;;;;;21.43;52.19;100798.78;5024996;28;20074;-75
2021/06/23 09:29:09;;;;;;;1.85;1.40;;;;;;;21.45;51.85;100791.66;5024913;28;20034;-75
2021/06/23 09:31:55;;;;;;;2.75;1.50;;;;;;;21.58;52.27;100799.81;5024994;28;20061;-74
2021/06/23 09:34:24;;;;;;;5.65;2.00;;;;;;;21.62;51.65;100801.38;5024678;28;20033;-75
2021/06/23 09:36:50;;;;;;;1.80;1.50;;;;;;;21.58;52.20;100799.81;5024922;28;20075;-75
2021/06/23 09:39:24;;;;;;;5.00;1.48;;;;;;;21.61;51.90;100798.81;5024611;28;20030;-75
2021/06/23 09:41:50;;;;;;;6.45;1.52;;;;;;;21.70;51.88;100798.38;5023674;28;20306;-75
2021/06/23 09:44:16;;;;;;;2.72;1.58;;;;;;;21.67;51.32;100803.81;5024640;28;20086;-75
2021/06/23 09:46:45;;;;;;;2.95;1.30;;;;;;;21.52;51.60;100800.09;5024728;28;20026;-76
2021/06/23 09:49:16;;;;;;;1.92;1.33;;;;;;;21.52;51.94;100803.63;5024363;28;20022;-75
2021/06/23 09:51:50;;;;;;;2.72;1.45;;;;;;;21.55;52.45;100802.59;5024791;28;20026;-76
2021/06/23 09:54:21;;;;;;;2.75;1.20;;;;;;;21.47;50.79;100802.97;5024485;28;20022;-75
2021/06/23 09:56:47;;;;;;;1.65;1.40;;;;;;;20.94;52.04;100800.19;5023458;28;20089;-75
2021/06/23 09:59:36;;;;;;;1.92;1.50;;;;;;;20.61;52.73;100795.44;5023888;28;20068;-74
2021/06/23 10:02:02;;;;;;;4.15;1.88;;;;;;;20.43;54.06;100804.09;5024528;28;20105;-75
2021/06/23 10:04:36;;;;;;;3.55;1.50;;;;;;;20.52;53.71;100805.50;5023084;28;20377;-75
2021/06/23 10:07:03;;;;;;;2.33;1.40;;;;;;;20.46;54.11;100804.91;5024681;28;20029;-76
2021/06/23 10:09:30;;;;;;;3.85;1.65;;;;;;;20.68;54.17;100802.16;5024346;28;20052;-76
2021/06/23 10:12:09;;;;;;;1.98;1.20;;;;;;;21.10;53.98;100802.09;5006514;28;20381;-76
2021/06/23 10:14:40;;;;;;;3.42;1.13;;;;;;;21.53;52.31;100797.38;5023927;28;20467;-76
2021/06/23 10:17:06;;;;;;;1.92;1.10;;;;;;;21.84;51.61;100804.81;5024178;28;20034;-76
2021/06/23 10:19:32;;;;;;;2.63;1.30;;;;;;;22.23;51.48;100805.47;5023990;28;20034;-76
2021/06/23 10:22:02;;;;;;;1.73;1.10;;;;;;;22.53;50.63;100804.81;5023988;28;20100;-75
2021/06/23 10:24:33;;;;;;;1.95;1.25;;;;;;;22.61;49.50;100807.94;5023942;28;20028;-74
2021/06/23 10:27:00;;;;;;;1.42;1.13;;;;;;;22.50;49.59;100808.50;5024062;28;20032;-75
2021/06/23 10:29:33;;;;;;;1.15;1.00;;;;;;;22.42;50.16;100810.69;5022917;28;20026;-75
2021/06/23 10:32:03;;;;;;;1.25;0.85;;;;;;;22.31;49.84;100807.72;5022745;28;20102;-75
2021/06/23 10:34:31;;;;;;;2.67;1.20;;;;;;;22.21;50.07;100807.34;5023560;28;20062;-76
2021/06/23 10:36:57;;;;;;;2.72;0.88;;;;;;;22.13;49.62;100807.75;5024136;28;20049;-76
2021/06/23 10:39:28;;;;;;;1.77;1.00;;;;;;;22.20;50.00;100805.66;5006015;28;20026;-75
2021/06/23 10:41:59;;;;;;;1.43;1.10;;;;;;;22.13;49.53;100810.38;5023990;28;20018;-76
2021/06/23 10:44:34;;;;;;;1.00;0.80;;;;;;;22.09;50.06;100814.13;5023771;28;20025;-75
2021/06/23 10:47:02;;;;;;;0.80;0.70;;;;;;;22.13;49.97;100810.38;5022467;28;20026;-75
2021/06/23 10:49:44;;;;;;;1.10;0.95;;;;;;;22.29;49.98;100819.25;5023569;28;20025;-76
2021/06/23 10:52:21;;;;;;;2.55;0.95;;;;;;;22.52;49.61;100819.00;5023530;28;20076;-76
2021/06/23 10:54:50;;;;;;;1.10;0.82;;;;;;;22.87;49.08;100826.03;5023717;28;20450;-76
2021/06/23 10:57:25;;;;;;;1.48;0.60;;;;;;;23.22;48.14;100836.47;5022192;28;20041;-75
2021/06/23 10:59:53;;;;;;;1.60;0.70;;;;;;;23.45;47.70;100841.47;5023325;28;20057;-75
2021/06/23 11:02:28;;;;;;;1.30;0.80;;;;;;;23.59;47.21;100843.34;5023661;28;20109;-75
2021/06/23 11:05:01;;;;;;;1.00;0.80;;;;;;;23.52;46.95;100848.97;5023419;28;20026;-76
2021/06/23 11:07:47;;;;;;;1.02;0.77;;;;;;;23.48;47.17;100839.47;5022337;28;20174;-77
2021/06/23 11:10:16;;;;;;;2.20;0.80;;;;;;;23.57;46.96;100846.06;5023401;28;20060;-77
2021/06/23 11:13:04;;;;;;;0.98;0.77;;;;;;;23.68;46.77;100842.81;5023272;28;20382;-76
2021/06/23 11:15:35;;;;;;;3.53;0.60;;;;;;;23.52;45.34;100841.03;5023401;28;20030;-77
2021/06/23 11:18:22;;;;;;;1.20;0.80;;;;;;;23.09;46.66;100851.31;5023505;28;20049;-78
2021/06/23 11:20:58;;;;;;;1.75;0.90;;;;;;;22.75;45.82;100838.97;5023365;28;20263;-76
2021/06/23 11:23:47;;;;;;;3.10;0.73;;;;;;;22.37;48.13;100833.84;5023208;28;20029;-75
2021/06/23 11:26:19;;;;;;;1.02;0.70;;;;;;;22.50;48.24;100839.38;5023276;28;20034;-76
2021/06/23 11:28:46;;;;;;;0.80;0.60;;;;;;;22.71;48.22;100832.13;5023076;28;20049;-75
2021/06/23 11:31:11;;;;;;;1.75;0.80;;;;;;;22.86;46.99;100841.03;5023197;28;20030;-75
2021/06/23 11:33:37;;;;;;;0.80;0.75;;;;;;;22.80;47.15;100841.38;5023381;28;20036;-74
2021/06/23 11:36:08;;;;;;;1.30;0.82;;;;;;;22.77;47.17;100850.34;5021805;28;20045;-75
2021/06/23 11:38:34;;;;;;;2.27;0.80;;;;;;;22.85;47.11;100849.06;5023440;28;20545;-76
2021/06/23 11:41:01;;;;;;;2.42;0.70;;;;;;;22.91;47.31;100848.72;5026256;28;20293;-76
2021/06/23 11:43:27;;;;;;;1.25;0.80;;;;;;;22.88;47.00;100847.09;5026990;28;20022;-76